createdAt,value
2023-03-07T00:00:51.904Z,1.25
2023-03-07T00:01:55.263Z,1.20
2023-03-07T00:02:57.736Z,1.18
2023-03-07T00:04:02.761Z,1.20
2023-03-07T00:05:09.222Z,1.16
2023-03-07T00:06:13.574Z,1.17
2023-03-07T00:07:18.207Z,1.14
2023-03-07T00:08:21.411Z,1.13
2023-03-07T00:09:25.592Z,1.09
2023-03-07T00:10:28.108Z,1.13
2023-03-07T00:11:34.206Z,1.12
2023-03-07T00:12:37.632Z,1.10
2023-03-07T00:13:40.780Z,1.09
2023-03-07T00:14:44.002Z,1.11
2023-03-07T00:15:47.621Z,1.08
2023-03-07T00:16:51.913Z,1.08
2023-03-07T00:17:54.320Z,0.99
2023-03-07T00:18:57.429Z,0.95
2023-03-07T00:19:59.752Z,1.01
2023-03-07T00:21:06.629Z,0.98
2023-03-07T00:22:14.545Z,0.97
2023-03-07T00:23:17.787Z,0.95
2023-03-07T00:24:21.917Z,0.95
2023-03-07T00:25:25.142Z,0.95
2023-03-07T00:26:28.739Z,0.96
2023-03-07T00:27:32.548Z,0.95
2023-03-07T00:28:36.683Z,0.87
2023-03-07T00:29:39.031Z,0.89
2023-03-07T00:30:42.436Z,0.95
2023-03-07T00:31:49.687Z,0.98
2023-03-07T00:32:53.311Z,0.97
2023-03-07T00:33:56.607Z,0.94
2023-03-07T00:35:02.014Z,0.96
2023-03-07T00:36:14.158Z,0.94
2023-03-07T00:37:20.464Z,0.89
2023-03-07T00:38:24.101Z,0.85
2023-03-07T00:39:27.594Z,0.78
2023-03-07T00:40:30.276Z,0.77
2023-03-07T00:41:33.562Z,0.72
2023-03-07T00:42:36.981Z,0.68
2023-03-07T00:43:39.652Z,0.66
2023-03-07T00:44:43.044Z,0.63
2023-03-07T00:45:46.525Z,0.58
2023-03-07T00:46:49.225Z,0.58
2023-03-07T00:47:53.458Z,0.59
2023-03-07T00:48:56.853Z,0.61
2023-03-07T00:50:00.138Z,0.58
2023-03-07T00:51:03.897Z,0.62
2023-03-07T00:52:10.501Z,0.67
2023-03-07T00:53:13.826Z,0.61
2023-03-07T00:54:16.992Z,0.58
2023-03-07T00:55:21.123Z,0.56
2023-03-07T00:56:24.408Z,0.62
2023-03-07T00:57:28.796Z,0.64
2023-03-07T00:58:35.337Z,0.64
2023-03-07T00:59:39.675Z,0.66
2023-03-07T01:00:43.917Z,0.67
2023-03-07T01:01:48.515Z,0.74
2023-03-07T01:02:51.943Z,0.82
2023-03-07T01:03:55.906Z,0.84
2023-03-07T01:04:59.666Z,0.86
2023-03-07T01:06:03.482Z,0.89
2023-03-07T01:07:08.493Z,0.86
2023-03-07T01:08:13.199Z,0.89
2023-03-07T01:09:16.818Z,0.96
2023-03-07T01:10:22.308Z,0.93
2023-03-07T01:11:26.231Z,0.78
2023-03-07T01:12:30.781Z,0.87
2023-03-07T01:13:35.958Z,0.96
2023-03-07T01:14:41.958Z,1.00
2023-03-07T01:15:45.213Z,0.92
2023-03-07T01:16:49.837Z,0.96
2023-03-07T01:17:53.736Z,1.00
2023-03-07T01:18:59.365Z,1.09
2023-03-07T01:20:08.823Z,1.08
2023-03-07T01:21:17.182Z,0.95
2023-03-07T01:22:20.825Z,1.00
2023-03-07T01:23:23.487Z,0.97
2023-03-07T01:24:26.349Z,1.05
2023-03-07T01:25:29.342Z,1.15
2023-03-07T01:26:37.692Z,1.07
2023-03-07T01:27:41.254Z,1.05
2023-03-07T01:28:44.905Z,1.15
2023-03-07T01:29:50.540Z,1.23
2023-03-07T01:30:56.160Z,1.20
2023-03-07T01:32:00.446Z,1.21
2023-03-07T01:33:05.059Z,1.18
2023-03-07T01:34:07.610Z,1.13
2023-03-07T01:35:12.376Z,1.17
2023-03-07T01:36:25.792Z,1.17
2023-03-07T01:37:31.817Z,1.21
2023-03-07T01:38:35.767Z,1.27
2023-03-07T01:39:41.129Z,1.29
2023-03-07T01:40:45.349Z,1.32
2023-03-07T01:41:49.607Z,1.34
2023-03-07T01:42:55.289Z,1.33
2023-03-07T01:44:03.986Z,1.32
2023-03-07T01:45:10.660Z,1.29
2023-03-07T01:46:20.530Z,1.25
2023-03-07T01:47:25.191Z,1.21
2023-03-07T01:48:30.164Z,1.19
2023-03-07T01:49:34.728Z,1.19
2023-03-07T01:50:43.236Z,1.22
2023-03-07T01:51:51.420Z,1.23
2023-03-07T01:52:57.127Z,1.24
2023-03-07T01:54:05.393Z,1.17
2023-03-07T01:55:10.583Z,1.16
2023-03-07T01:56:15.275Z,1.05
2023-03-07T01:57:19.400Z,0.97
2023-03-07T01:58:22.543Z,1.00
2023-03-07T01:59:29.065Z,1.02
2023-03-07T02:00:35.986Z,0.97
2023-03-07T02:01:39.735Z,1.00
2023-03-07T02:02:45.822Z,0.97
2023-03-07T02:03:51.597Z,0.92
2023-03-07T02:04:58.858Z,0.79
2023-03-07T02:06:04.345Z,0.83
2023-03-07T02:07:10.679Z,0.82
2023-03-07T02:08:15.219Z,0.84
2023-03-07T02:09:24.301Z,0.83
2023-03-07T02:10:28.193Z,0.79
2023-03-07T02:11:36.350Z,0.82
2023-03-07T02:12:40.881Z,0.77
2023-03-07T02:13:44.872Z,0.78
2023-03-07T02:14:50.666Z,0.77
2023-03-07T02:15:54.507Z,0.79
2023-03-07T02:16:58.103Z,0.79
2023-03-07T02:18:02.757Z,0.72
2023-03-07T02:19:07.297Z,0.72
2023-03-07T02:20:12.689Z,0.72
2023-03-07T02:21:22.968Z,0.72
2023-03-07T02:22:27.123Z,0.71
2023-03-07T02:23:31.341Z,0.76
2023-03-07T02:24:39.886Z,0.72
2023-03-07T02:25:44.722Z,0.70
2023-03-07T02:26:50.852Z,0.66
2023-03-07T02:27:55.616Z,0.65
2023-03-07T02:29:00.461Z,0.59
2023-03-07T02:30:05.934Z,0.58
2023-03-07T02:31:10.501Z,0.52
2023-03-07T02:32:15.102Z,0.54
2023-03-07T02:33:18.982Z,0.49
2023-03-07T02:34:29.695Z,0.46
2023-03-07T02:35:35.133Z,0.44
2023-03-07T02:36:38.920Z,0.39
2023-03-07T02:37:46.086Z,0.33
2023-03-07T02:38:51.764Z,0.31
2023-03-07T02:39:56.537Z,0.26
2023-03-07T02:41:00.859Z,0.21
2023-03-07T02:42:09.412Z,0.20
2023-03-07T02:43:14.863Z,0.11
2023-03-07T02:44:17.745Z,-0.07
2023-03-07T02:45:21.992Z,-0.02
2023-03-07T02:46:26.487Z,-0.09
2023-03-07T02:47:33.288Z,-0.27
2023-03-07T02:48:38.992Z,-0.28
2023-03-07T02:49:42.186Z,-0.24
2023-03-07T02:50:45.449Z,-0.23
2023-03-07T02:51:48.876Z,-0.27
2023-03-07T02:52:52.368Z,-0.24
2023-03-07T02:53:55.662Z,-0.27
2023-03-07T02:55:01.461Z,-0.23
2023-03-07T02:56:07.165Z,-0.17
2023-03-07T02:57:12.415Z,-0.13
2023-03-07T02:58:17.095Z,-0.13
2023-03-07T02:59:19.979Z,-0.25
2023-03-07T03:00:23.900Z,-0.22
2023-03-07T03:01:26.597Z,-0.25
2023-03-07T03:02:33.001Z,-0.19
2023-03-07T03:03:35.909Z,-0.19
2023-03-07T03:04:41.533Z,-0.19
2023-03-07T03:05:45.292Z,-0.19
2023-03-07T03:06:50.151Z,-0.16
2023-03-07T03:07:54.587Z,-0.19
2023-03-07T03:09:00.807Z,-0.20
2023-03-07T03:10:05.672Z,-0.16
2023-03-07T03:11:10.222Z,-0.17
2023-03-07T03:12:16.044Z,-0.14
2023-03-07T03:13:21.647Z,-0.14
2023-03-07T03:14:25.085Z,-0.15
2023-03-07T03:15:29.055Z,-0.18
2023-03-07T03:16:34.745Z,-0.18
2023-03-07T03:17:39.931Z,-0.21
2023-03-07T03:18:42.798Z,-0.24
2023-03-07T03:19:46.618Z,-0.26
2023-03-07T03:20:50.029Z,-0.25
2023-03-07T03:21:53.478Z,-0.27
2023-03-07T03:22:58.708Z,-0.26
2023-03-07T03:24:08.888Z,-0.24
2023-03-07T03:25:13.863Z,-0.24
2023-03-07T03:26:19.368Z,-0.24
2023-03-07T03:27:22.860Z,-0.22
2023-03-07T03:28:27.310Z,-0.19
2023-03-07T03:29:30.914Z,-0.20
2023-03-07T03:30:36.706Z,-0.19
2023-03-07T03:31:39.477Z,-0.16
2023-03-07T03:32:44.467Z,-0.14
2023-03-07T03:33:51.830Z,-0.11
2023-03-07T03:34:57.110Z,-0.10
2023-03-07T03:36:01.440Z,-0.11
2023-03-07T03:37:05.266Z,-0.12
2023-03-07T03:38:07.822Z,-0.11
2023-03-07T03:39:11.265Z,-0.10
2023-03-07T03:40:18.068Z,-0.18
2023-03-07T03:41:22.513Z,-0.16
2023-03-07T03:42:25.809Z,-0.20
2023-03-07T03:43:30.696Z,-0.18
2023-03-07T03:44:34.757Z,-0.17
2023-03-07T03:45:38.737Z,-0.11
2023-03-07T03:46:43.924Z,-0.10
2023-03-07T03:47:49.078Z,-0.13
2023-03-07T03:48:56.359Z,-0.10
2023-03-07T03:50:01.224Z,0.00
2023-03-07T03:51:06.873Z,0.09
2023-03-07T03:52:10.145Z,0.15
2023-03-07T03:53:14.890Z,0.20
2023-03-07T03:54:17.534Z,0.26
2023-03-07T03:55:23.744Z,0.27
2023-03-07T03:56:29.275Z,0.30
2023-03-07T03:57:33.774Z,0.35
2023-03-07T03:58:37.853Z,0.40
2023-03-07T03:59:41.327Z,0.42
2023-03-07T04:00:44.821Z,0.46
2023-03-07T04:01:48.315Z,0.50
2023-03-07T04:02:51.210Z,0.50
2023-03-07T04:03:54.197Z,0.56
2023-03-07T04:05:01.592Z,0.57
2023-03-07T04:06:05.402Z,0.58
2023-03-07T04:07:08.155Z,0.64
2023-03-07T04:08:11.889Z,0.63
2023-03-07T04:09:14.740Z,0.69
2023-03-07T04:10:20.137Z,0.74
2023-03-07T04:11:24.584Z,0.80
2023-03-07T04:12:29.023Z,0.79
2023-03-07T04:13:34.095Z,0.84
2023-03-07T04:14:37.521Z,0.85
2023-03-07T04:15:41.102Z,0.87
2023-03-07T04:16:44.657Z,0.85
2023-03-07T04:17:47.901Z,0.91
2023-03-07T04:18:53.676Z,0.97
2023-03-07T04:19:58.656Z,0.96
2023-03-07T04:21:03.642Z,1.08
2023-03-07T04:22:06.416Z,1.12
2023-03-07T04:23:09.820Z,1.09
2023-03-07T04:24:15.110Z,1.08
2023-03-07T04:25:18.706Z,1.05
2023-03-07T04:26:21.053Z,1.15
2023-03-07T04:27:24.460Z,1.18
2023-03-07T04:28:28.584Z,1.23
2023-03-07T04:29:32.766Z,1.20
2023-03-07T04:30:41.687Z,1.21
2023-03-07T04:31:48.171Z,1.26
2023-03-07T04:32:53.654Z,1.22
2023-03-07T04:33:57.608Z,1.26
2023-03-07T04:35:04.350Z,1.24
2023-03-07T04:36:08.206Z,1.26
2023-03-07T04:37:11.379Z,1.27
2023-03-07T04:38:17.686Z,1.26
2023-03-07T04:39:21.609Z,1.28
2023-03-07T04:40:25.074Z,1.27
2023-03-07T04:41:27.902Z,1.27
2023-03-07T04:42:37.872Z,1.30
2023-03-07T04:43:41.479Z,1.31
2023-03-07T04:44:46.032Z,1.31
2023-03-07T04:45:49.682Z,1.25
2023-03-07T04:46:53.457Z,1.25
2023-03-07T04:47:57.169Z,1.31
2023-03-07T04:49:01.941Z,1.35
2023-03-07T04:50:09.924Z,1.40
2023-03-07T04:51:15.471Z,1.45
2023-03-07T04:52:18.837Z,1.44
2023-03-07T04:53:22.012Z,1.45
2023-03-07T04:54:25.302Z,1.51
2023-03-07T04:55:29.884Z,1.53
2023-03-07T04:56:35.657Z,1.51
2023-03-07T04:57:38.018Z,1.56
2023-03-07T04:58:43.772Z,1.55
2023-03-07T04:59:47.111Z,1.58
2023-03-07T05:00:51.520Z,1.64
2023-03-07T05:01:55.910Z,1.50
2023-03-07T05:02:59.503Z,1.52
2023-03-07T05:04:02.964Z,1.66
2023-03-07T05:05:08.515Z,1.72
2023-03-07T05:06:14.508Z,1.72
2023-03-07T05:07:19.268Z,1.79
2023-03-07T05:08:23.402Z,1.79
2023-03-07T05:09:26.696Z,1.87
2023-03-07T05:10:31.130Z,1.89
2023-03-07T05:11:35.480Z,1.88
2023-03-07T05:12:41.893Z,1.93
2023-03-07T05:13:46.038Z,1.91
2023-03-07T05:14:51.102Z,2.09
2023-03-07T05:15:55.612Z,2.14
2023-03-07T05:16:59.064Z,1.93
2023-03-07T05:18:02.885Z,1.96
2023-03-07T05:19:07.542Z,2.11
2023-03-07T05:20:13.111Z,2.28
2023-03-07T05:21:17.602Z,2.44
2023-03-07T05:22:23.264Z,2.31
2023-03-07T05:23:29.492Z,2.33
2023-03-07T05:24:32.268Z,2.40
2023-03-07T05:25:35.877Z,2.33
2023-03-07T05:26:39.485Z,2.50
2023-03-07T05:27:43.293Z,2.51
2023-03-07T05:28:48.894Z,2.55
2023-03-07T05:29:52.356Z,2.32
2023-03-07T05:30:55.973Z,2.53
2023-03-07T05:31:59.518Z,2.59
2023-03-07T05:33:05.768Z,2.64
2023-03-07T05:34:13.214Z,2.63
2023-03-07T05:35:18.379Z,2.66
2023-03-07T05:36:21.879Z,2.68
2023-03-07T05:37:25.392Z,2.71
2023-03-07T05:38:28.588Z,2.81
2023-03-07T05:39:32.307Z,2.82
2023-03-07T05:40:37.186Z,2.93
2023-03-07T05:41:40.919Z,3.01
2023-03-07T05:42:44.834Z,3.06
2023-03-07T05:43:48.516Z,3.01
2023-03-07T05:44:52.233Z,3.14
2023-03-07T05:45:56.285Z,3.33
2023-03-07T05:46:59.989Z,3.42
2023-03-07T05:48:03.823Z,3.54
2023-03-07T05:49:07.842Z,3.28
2023-03-07T05:50:10.999Z,3.32
2023-03-07T05:51:18.698Z,3.39
2023-03-07T05:52:22.305Z,3.20
2023-03-07T05:53:25.808Z,3.25
2023-03-07T05:54:28.478Z,3.29
2023-03-07T05:55:32.734Z,3.41
2023-03-07T05:56:35.280Z,3.60
2023-03-07T05:57:39.638Z,3.75
2023-03-07T05:58:44.380Z,3.80
2023-03-07T05:59:47.663Z,3.82
2023-03-07T06:00:52.536Z,3.73
2023-03-07T06:01:57.946Z,3.69
2023-03-07T06:03:05.173Z,3.71
2023-03-07T06:04:08.536Z,3.94
2023-03-07T06:05:11.988Z,3.79
2023-03-07T06:06:15.185Z,3.79
2023-03-07T06:07:20.668Z,3.87
2023-03-07T06:08:23.468Z,3.95
2023-03-07T06:09:28.606Z,3.84
2023-03-07T06:10:33.648Z,3.89
2023-03-07T06:11:37.501Z,4.14
2023-03-07T06:12:40.932Z,4.33
2023-03-07T06:13:44.014Z,4.43
2023-03-07T06:14:47.291Z,4.43
2023-03-07T06:15:55.006Z,4.39
2023-03-07T06:16:59.949Z,4.37
2023-03-07T06:18:04.894Z,4.29
2023-03-07T06:19:08.204Z,4.32
2023-03-07T06:20:13.261Z,4.10
2023-03-07T06:21:17.617Z,3.95
2023-03-07T06:22:22.182Z,3.94
2023-03-07T06:23:26.229Z,3.98
2023-03-07T06:24:29.484Z,3.91
2023-03-07T06:25:32.775Z,3.81
2023-03-07T06:26:36.498Z,4.04
2023-03-07T06:27:40.111Z,4.05
2023-03-07T06:28:43.754Z,4.02
2023-03-07T06:29:49.941Z,4.16
2023-03-07T06:30:52.400Z,4.30
2023-03-07T06:31:55.804Z,4.32
2023-03-07T06:33:03.380Z,4.42
2023-03-07T06:34:07.083Z,4.19
2023-03-07T06:35:12.792Z,4.17
2023-03-07T06:36:21.350Z,4.20
2023-03-07T06:37:29.168Z,4.27
2023-03-07T06:38:34.378Z,4.17
2023-03-07T06:39:39.356Z,3.97
2023-03-07T06:40:43.268Z,3.83
2023-03-07T06:41:49.764Z,3.78
2023-03-07T06:42:53.643Z,3.67
2023-03-07T06:43:57.154Z,3.69
2023-03-07T06:45:02.233Z,3.62
2023-03-07T06:46:06.358Z,3.73
2023-03-07T06:47:12.540Z,3.46
2023-03-07T06:48:16.164Z,3.51
2023-03-07T06:49:19.664Z,3.72
2023-03-07T06:50:33.433Z,3.66
2023-03-07T06:51:28.554Z,3.75
2023-03-07T06:52:33.211Z,3.77
2023-03-07T06:53:35.764Z,3.49
2023-03-07T06:54:39.198Z,3.40
2023-03-07T06:55:44.149Z,3.41
2023-03-07T06:56:48.818Z,3.26
2023-03-07T06:57:55.010Z,3.52
2023-03-07T06:58:59.566Z,3.64
2023-03-07T07:00:05.065Z,3.75
2023-03-07T07:01:19.525Z,3.81
2023-03-07T07:02:23.880Z,3.69
2023-03-07T07:03:28.625Z,3.72
2023-03-07T07:04:34.051Z,3.91
2023-03-07T07:05:37.628Z,3.78
2023-03-07T07:06:41.019Z,3.79
2023-03-07T07:07:45.713Z,3.75
2023-03-07T07:08:50.430Z,3.66
2023-03-07T07:09:54.752Z,3.59
2023-03-07T07:11:00.260Z,3.61
2023-03-07T07:12:05.995Z,3.96
2023-03-07T07:13:12.634Z,3.94
2023-03-07T07:14:16.939Z,4.02
2023-03-07T07:15:21.592Z,4.14
2023-03-07T07:16:26.778Z,4.14
2023-03-07T07:17:30.263Z,3.96
2023-03-07T07:18:34.091Z,3.82
2023-03-07T07:19:36.650Z,4.03
2023-03-07T07:20:41.414Z,3.93
2023-03-07T07:21:46.363Z,3.93
2023-03-07T07:22:49.886Z,3.94
2023-03-07T07:23:54.544Z,3.95
2023-03-07T07:24:58.908Z,3.93
2023-03-07T07:26:01.650Z,4.14
2023-03-07T07:27:04.846Z,4.09
2023-03-07T07:28:10.325Z,3.79
2023-03-07T07:29:15.342Z,3.91
2023-03-07T07:30:18.799Z,4.10
2023-03-07T07:31:22.366Z,4.15
2023-03-07T07:32:27.192Z,4.19
2023-03-07T07:33:31.930Z,4.17
2023-03-07T07:34:35.532Z,4.17
2023-03-07T07:35:39.682Z,4.12
2023-03-07T07:36:43.389Z,4.03
2023-03-07T07:37:46.267Z,4.01
2023-03-07T07:38:50.258Z,4.13
2023-03-07T07:39:54.454Z,3.92
2023-03-07T07:41:00.151Z,3.81
2023-03-07T07:42:03.524Z,3.84
2023-03-07T07:43:10.170Z,3.87
2023-03-07T07:44:17.559Z,3.94
2023-03-07T07:45:23.644Z,3.84
2023-03-07T07:46:30.317Z,3.84
2023-03-07T07:47:33.890Z,3.74
2023-03-07T07:48:37.305Z,3.70
2023-03-07T07:49:41.230Z,3.74
2023-03-07T07:50:44.416Z,3.79
2023-03-07T07:51:47.610Z,3.76
2023-03-07T07:52:52.648Z,3.57
2023-03-07T07:53:56.083Z,3.65
2023-03-07T07:54:59.535Z,3.68
2023-03-07T07:56:04.033Z,3.67
2023-03-07T07:57:07.751Z,3.66
2023-03-07T07:58:11.354Z,3.65
2023-03-07T07:59:13.918Z,3.54
2023-03-07T08:00:19.662Z,3.56
2023-03-07T08:01:24.784Z,3.54
2023-03-07T08:02:30.825Z,3.54
2023-03-07T08:03:33.929Z,3.44
2023-03-07T08:04:36.457Z,3.39
2023-03-07T08:05:43.378Z,3.48
2023-03-07T08:06:47.995Z,3.44
2023-03-07T08:07:51.378Z,3.38
2023-03-07T08:08:55.495Z,3.35
2023-03-07T08:09:58.674Z,3.39
2023-03-07T08:11:02.082Z,3.25
2023-03-07T08:12:07.020Z,3.27
2023-03-07T08:13:14.322Z,3.24
2023-03-07T08:14:17.916Z,3.22
2023-03-07T08:15:25.391Z,3.28
2023-03-07T08:16:29.345Z,3.32
2023-03-07T08:17:32.002Z,3.45
2023-03-07T08:18:35.429Z,3.38
2023-03-07T08:19:37.634Z,3.36
2023-03-07T08:20:42.099Z,3.31
2023-03-07T08:21:45.596Z,3.30
2023-03-07T08:22:49.556Z,3.23
2023-03-07T08:23:53.959Z,3.13
2023-03-07T08:24:58.021Z,3.12
2023-03-07T08:26:06.190Z,3.15
2023-03-07T08:27:12.220Z,3.17
2023-03-07T08:28:14.462Z,3.18
2023-03-07T08:29:18.403Z,3.16
2023-03-07T08:30:24.071Z,3.10
2023-03-07T08:31:29.010Z,3.14
2023-03-07T08:32:32.782Z,3.17
2023-03-07T08:33:36.274Z,3.36
2023-03-07T08:34:39.568Z,3.26
2023-03-07T08:35:44.474Z,3.24
2023-03-07T08:36:47.723Z,3.22
2023-03-07T08:37:52.888Z,3.23
2023-03-07T08:38:55.379Z,3.33
2023-03-07T08:39:58.658Z,3.43
2023-03-07T08:41:06.039Z,3.46
2023-03-07T08:42:11.658Z,3.58
2023-03-07T08:43:15.965Z,3.65
2023-03-07T08:44:18.401Z,3.66
2023-03-07T08:45:22.864Z,3.75
2023-03-07T08:46:26.584Z,3.79
2023-03-07T08:47:29.347Z,3.89
2023-03-07T08:48:33.300Z,3.81
2023-03-07T08:49:37.629Z,3.95
2023-03-07T08:50:41.811Z,4.05
2023-03-07T08:51:47.033Z,4.02
2023-03-07T08:52:57.430Z,3.88
2023-03-07T08:54:01.348Z,3.79
2023-03-07T08:55:05.479Z,3.88
2023-03-07T08:56:10.622Z,3.91
2023-03-07T08:57:15.096Z,4.01
2023-03-07T08:58:18.710Z,4.04
2023-03-07T08:59:22.095Z,3.87
2023-03-07T09:00:25.640Z,4.03
2023-03-07T09:01:28.742Z,3.84
2023-03-07T09:02:31.245Z,3.74
2023-03-07T09:03:35.697Z,3.95
2023-03-07T09:04:39.456Z,4.23
2023-03-07T09:05:41.661Z,4.28
2023-03-07T09:06:44.434Z,4.26
2023-03-07T09:07:46.643Z,4.05
2023-03-07T09:08:50.826Z,4.05
2023-03-07T09:09:55.215Z,4.19
2023-03-07T09:11:04.198Z,4.29
2023-03-07T09:12:15.030Z,4.38
2023-03-07T09:13:18.699Z,4.73
2023-03-07T09:14:22.353Z,4.95
2023-03-07T09:15:26.586Z,5.24
2023-03-07T09:16:33.143Z,5.63
2023-03-07T09:17:38.198Z,5.55
2023-03-07T09:18:41.373Z,6.00
2023-03-07T09:19:43.599Z,6.40
2023-03-07T09:20:48.393Z,6.46
2023-03-07T09:21:54.813Z,7.09
2023-03-07T09:22:59.064Z,7.67
2023-03-07T09:24:02.320Z,7.39
2023-03-07T09:25:07.974Z,7.32
2023-03-07T09:26:11.038Z,7.25
2023-03-07T09:27:14.118Z,7.04
2023-03-07T09:28:18.387Z,7.01
2023-03-07T09:29:21.585Z,6.51
2023-03-07T09:30:26.984Z,6.06
2023-03-07T09:31:30.238Z,5.80
2023-03-07T09:32:34.500Z,5.87
2023-03-07T09:33:39.142Z,5.84
2023-03-07T09:34:45.452Z,6.06
2023-03-07T09:35:50.135Z,6.21
2023-03-07T09:36:53.613Z,6.30
2023-03-07T09:37:55.967Z,6.66
2023-03-07T09:39:00.727Z,6.48
2023-03-07T09:40:07.514Z,6.59
2023-03-07T09:41:11.808Z,6.29
2023-03-07T09:42:37.497Z,5.81
2023-03-07T09:43:45.503Z,5.75
2023-03-07T09:45:07.862Z,5.64
2023-03-07T09:46:32.052Z,5.50
2023-03-07T09:47:42.342Z,5.85
2023-03-07T09:48:59.643Z,5.79
2023-03-07T09:50:05.208Z,5.82
2023-03-07T09:51:12.025Z,5.78
2023-03-07T09:52:17.345Z,5.74
2023-03-07T09:53:31.529Z,5.53
2023-03-07T09:54:35.845Z,5.44
2023-03-07T09:55:42.618Z,5.63
2023-03-07T09:56:54.476Z,5.46
2023-03-07T09:58:01.520Z,5.47
2023-03-07T09:59:22.473Z,5.22
2023-03-07T10:00:32.759Z,5.41
2023-03-07T10:01:38.576Z,5.29
2023-03-07T10:02:47.708Z,5.18
2023-03-07T10:03:54.751Z,5.12
2023-03-07T10:05:08.300Z,4.95
2023-03-07T10:06:12.376Z,4.92
2023-03-07T10:07:17.163Z,4.99
2023-03-07T10:08:25.809Z,4.86
2023-03-07T10:09:29.643Z,4.91
2023-03-07T10:10:35.082Z,4.82
2023-03-07T10:11:58.833Z,4.65
2023-03-07T10:13:21.930Z,4.63
2023-03-07T10:14:45.690Z,4.99
2023-03-07T10:15:52.098Z,5.06
2023-03-07T10:17:14.215Z,5.22
2023-03-07T10:18:19.283Z,5.16
2023-03-07T10:19:34.466Z,5.49
2023-03-07T10:20:43.533Z,5.74
2023-03-07T10:21:51.842Z,5.83
2023-03-07T10:22:59.112Z,5.75
2023-03-07T10:24:13.359Z,5.75
2023-03-07T10:25:21.250Z,5.96
2023-03-07T10:26:32.694Z,6.09
2023-03-07T10:27:36.105Z,6.60
2023-03-07T10:28:42.749Z,6.50
2023-03-07T10:29:47.590Z,6.48
2023-03-07T10:30:54.017Z,6.64
2023-03-07T10:32:09.599Z,6.47
2023-03-07T10:33:14.974Z,6.66
2023-03-07T10:34:27.132Z,6.75
2023-03-07T10:35:45.363Z,6.75
2023-03-07T10:37:59.240Z,6.44
2023-03-07T10:39:09.642Z,6.46
2023-03-07T10:40:14.710Z,6.23
2023-03-07T10:41:24.569Z,6.11
2023-03-07T10:42:30.073Z,6.38
2023-03-07T10:43:36.120Z,6.83
2023-03-07T10:44:40.639Z,7.05
2023-03-07T10:45:43.831Z,6.87
2023-03-07T10:46:55.315Z,7.16
2023-03-07T10:47:52.918Z,7.23
2023-03-07T10:48:57.154Z,7.02
2023-03-07T10:50:16.541Z,6.64
2023-03-07T10:51:27.704Z,6.74
2023-03-07T10:52:42.165Z,6.90
2023-03-07T10:53:48.495Z,6.89
2023-03-07T10:54:52.489Z,6.85
2023-03-07T10:56:15.957Z,7.03
2023-03-07T10:57:21.024Z,7.05
2023-03-07T10:58:27.034Z,7.10
2023-03-07T10:59:30.540Z,7.48
2023-03-07T11:00:33.873Z,7.74
2023-03-07T11:01:38.945Z,7.63
2023-03-07T11:02:45.056Z,7.46
2023-03-07T11:03:55.854Z,7.44
2023-03-07T11:04:59.140Z,7.61
2023-03-07T11:06:02.958Z,7.48
2023-03-07T11:07:12.129Z,7.44
2023-03-07T11:08:30.433Z,7.35
2023-03-07T11:09:34.161Z,7.29
2023-03-07T11:10:40.996Z,7.22
2023-03-07T11:11:49.125Z,7.09
2023-03-07T11:12:52.814Z,6.85
2023-03-07T11:14:07.199Z,6.88
2023-03-07T11:15:12.480Z,6.95
2023-03-07T11:16:21.736Z,6.82
2023-03-07T11:17:44.256Z,6.85
2023-03-07T11:18:50.967Z,6.88
2023-03-07T11:19:55.312Z,6.63
2023-03-07T11:20:59.117Z,6.58
2023-03-07T11:22:05.449Z,6.76
2023-03-07T11:23:18.556Z,6.75
2023-03-07T11:24:25.711Z,6.91
2023-03-07T11:25:31.975Z,6.93
2023-03-07T11:26:38.047Z,6.95
2023-03-07T11:27:54.000Z,7.10
2023-03-07T11:29:08.153Z,7.20
2023-03-07T11:30:15.143Z,7.30
2023-03-07T11:31:28.648Z,7.33
2023-03-07T11:32:32.481Z,7.36
2023-03-07T11:33:52.975Z,7.19
2023-03-07T11:34:46.677Z,7.10
2023-03-07T11:35:57.676Z,7.20
2023-03-07T11:37:05.998Z,7.20
2023-03-07T11:38:30.823Z,7.50
2023-03-07T11:39:50.227Z,7.71
2023-03-07T11:41:07.916Z,7.88
2023-03-07T11:42:20.384Z,7.81
2023-03-07T11:43:26.418Z,7.49
2023-03-07T11:44:38.818Z,7.46
2023-03-07T11:45:43.142Z,7.25
2023-03-07T11:47:05.550Z,7.27
2023-03-07T11:48:20.113Z,7.57
2023-03-07T11:49:43.208Z,7.76
2023-03-07T11:50:51.041Z,8.03
2023-03-07T11:52:05.548Z,8.01
2023-03-07T11:53:29.085Z,8.09
2023-03-07T11:54:51.171Z,8.33
2023-03-07T11:55:56.466Z,7.95
2023-03-07T11:57:00.923Z,7.90
2023-03-07T11:58:21.230Z,7.61
2023-03-07T11:59:41.761Z,7.72
2023-03-07T12:00:56.664Z,7.89
2023-03-07T12:02:02.974Z,7.96
2023-03-07T12:03:11.555Z,7.83
2023-03-07T12:04:32.754Z,7.79
2023-03-07T12:05:44.467Z,8.04
2023-03-07T12:07:08.227Z,8.03
2023-03-07T12:08:27.766Z,8.32
2023-03-07T12:09:32.725Z,8.27
2023-03-07T12:10:38.945Z,8.06
2023-03-07T12:11:49.751Z,8.06
2023-03-07T12:13:03.295Z,8.15
2023-03-07T12:14:18.496Z,8.19
2023-03-07T12:15:34.750Z,8.29
2023-03-07T12:16:52.848Z,7.85
2023-03-07T12:18:15.503Z,7.60
2023-03-07T12:19:32.911Z,7.80
2023-03-07T12:20:47.404Z,7.82
2023-03-07T12:22:09.601Z,8.02
2023-03-07T12:23:27.207Z,8.20
2023-03-07T12:24:32.460Z,7.95
2023-03-07T12:25:38.641Z,8.03
2023-03-07T12:26:43.952Z,7.99
2023-03-07T12:28:01.253Z,7.97
2023-03-07T12:29:08.000Z,7.82
2023-03-07T12:30:19.345Z,7.79
2023-03-07T12:31:29.953Z,7.81
2023-03-07T12:32:36.636Z,7.74
2023-03-07T12:33:59.939Z,7.65
2023-03-07T12:35:07.080Z,7.85
2023-03-07T12:36:12.171Z,7.92
2023-03-07T12:37:25.907Z,8.19
2023-03-07T12:38:36.232Z,8.35
2023-03-07T12:39:43.705Z,8.43
2023-03-07T12:40:51.028Z,8.34
2023-03-07T12:42:05.937Z,8.21
2023-03-07T12:43:25.627Z,7.94
2023-03-07T12:44:33.312Z,7.84
2023-03-07T12:45:42.360Z,7.92
2023-03-07T12:46:52.144Z,7.85
2023-03-07T12:48:00.425Z,7.94
2023-03-07T12:49:23.062Z,7.98
2023-03-07T12:50:32.723Z,7.81
2023-03-07T12:51:41.542Z,7.65
2023-03-07T12:52:51.838Z,7.67
2023-03-07T12:54:02.950Z,7.71
2023-03-07T12:55:23.297Z,7.74
2023-03-07T12:56:27.627Z,7.87
2023-03-07T12:57:38.905Z,8.03
2023-03-07T12:58:44.261Z,7.92
2023-03-07T12:59:52.601Z,7.86
2023-03-07T13:00:57.149Z,8.23
2023-03-07T13:02:06.705Z,8.34
2023-03-07T13:03:12.098Z,8.49
2023-03-07T13:04:16.465Z,8.46
2023-03-07T13:05:21.817Z,8.30
2023-03-07T13:06:27.807Z,8.36
2023-03-07T13:07:32.989Z,8.25
2023-03-07T13:08:36.059Z,8.18
2023-03-07T13:09:41.911Z,7.99
2023-03-07T13:10:46.269Z,7.95
2023-03-07T13:12:10.877Z,7.75
2023-03-07T13:13:25.644Z,7.75
2023-03-07T13:14:40.391Z,7.80
2023-03-07T13:15:46.736Z,7.68
2023-03-07T13:16:51.265Z,7.62
2023-03-07T13:17:56.637Z,7.79
2023-03-07T13:19:01.305Z,7.78
2023-03-07T13:20:18.466Z,7.86
2023-03-07T13:21:34.312Z,7.97
2023-03-07T13:22:40.832Z,7.92
2023-03-07T13:23:45.285Z,7.91
2023-03-07T13:24:51.925Z,7.78
2023-03-07T13:26:00.893Z,7.57
2023-03-07T13:27:17.101Z,7.41
2023-03-07T13:28:39.714Z,7.23
2023-03-07T13:30:00.792Z,7.22
2023-03-07T13:31:14.262Z,7.44
2023-03-07T13:32:36.638Z,7.51
2023-03-07T13:33:39.838Z,7.63
2023-03-07T13:34:52.607Z,7.56
2023-03-07T13:35:57.902Z,7.72
2023-03-07T13:37:03.248Z,7.75
2023-03-07T13:38:15.954Z,7.64
2023-03-07T13:39:36.051Z,7.66
2023-03-07T13:40:50.189Z,7.72
2023-03-07T13:41:53.423Z,7.71
2023-03-07T13:42:57.130Z,7.73
2023-03-07T13:44:01.059Z,7.71
2023-03-07T13:45:07.072Z,7.66
2023-03-07T13:46:28.667Z,7.55
2023-03-07T13:47:45.431Z,7.46
2023-03-07T13:48:50.915Z,7.47
2023-03-07T13:49:54.270Z,7.41
2023-03-07T13:50:58.877Z,7.39
2023-03-07T13:52:21.070Z,7.32
2023-03-07T13:53:44.694Z,7.36
2023-03-07T13:54:52.970Z,7.39
2023-03-07T13:56:12.630Z,7.36
2023-03-07T13:57:20.417Z,7.18
2023-03-07T13:58:30.989Z,7.07
2023-03-07T13:59:33.891Z,7.18
2023-03-07T14:00:40.198Z,7.30
2023-03-07T14:01:46.120Z,7.45
2023-03-07T14:02:50.322Z,7.56
2023-03-07T14:03:58.837Z,7.62
2023-03-07T14:05:03.558Z,7.66
2023-03-07T14:06:08.825Z,7.68
2023-03-07T14:07:14.923Z,7.72
2023-03-07T14:08:22.193Z,7.65
2023-03-07T14:09:34.552Z,7.64
2023-03-07T14:10:37.613Z,7.51
2023-03-07T14:11:45.898Z,7.37
2023-03-07T14:13:08.042Z,7.29
2023-03-07T14:14:15.801Z,7.21
2023-03-07T14:15:23.975Z,7.18
2023-03-07T14:16:30.475Z,7.24
2023-03-07T14:17:41.744Z,7.31
2023-03-07T14:18:47.032Z,7.29
2023-03-07T14:19:53.132Z,7.28
2023-03-07T14:21:10.330Z,7.14
2023-03-07T14:22:18.490Z,7.23
2023-03-07T14:23:37.210Z,7.26
2023-03-07T14:24:42.259Z,7.20
2023-03-07T14:25:51.921Z,7.20
2023-03-07T14:26:56.369Z,7.16
2023-03-07T14:29:26.725Z,7.16
2023-03-07T14:30:30.908Z,7.15
2023-03-07T14:31:38.794Z,7.18
2023-03-07T14:32:45.116Z,7.18
2023-03-07T14:33:48.416Z,7.19
2023-03-07T14:34:53.600Z,7.22
2023-03-07T14:35:56.804Z,7.30
2023-03-07T14:37:02.079Z,7.32
2023-03-07T14:38:18.621Z,7.26
2023-03-07T14:39:25.228Z,7.24
2023-03-07T14:40:30.438Z,7.24
2023-03-07T14:41:37.309Z,7.18
2023-03-07T14:42:42.426Z,7.09
2023-03-07T14:43:56.028Z,7.03
2023-03-07T14:45:04.936Z,6.95